KOSU/OSU METAR and TAF weather

Enter ICAO airport designator
Station Type Date Time Source
KOSU METAR 2019/08/19 01:53 UTC NOAA

KOSU 190153Z 20007KT 10SM CLR 28/20 A2992 RMK AO2 SLP122 T02830200


Station Type Date Time Source
KOSU Decoded METAR 2019/08/19 01:53 UTC NOAA

Station name not available
Aug 18, 2019 - 09:53 PM EDT / 2019.08.19 0153 UTC
Wind: from the SSW (200 degrees) at 8 MPH (7 KT):0
Visibility: 10 mile(s):0
Sky conditions: clear
Temperature: 82.9 F (28.3 C)
Dew Point: 68.0 F (20.0 C)
Relative Humidity: 60%
Pressure (altimeter): 29.92 in. Hg (1013 hPa)
ob: KOSU 190153Z 20007KT 10SM CLR 28/20 A2992 RMK AO2 SLP122 T02830200
cycle: 2

Station Type Date Time Source
KOSU TAF UTC NOAA

Error!

Example: see airport list